createdAt,value
2022-07-29T00:01:40.710Z,76.80
2022-07-29T00:03:40.491Z,76.66
2022-07-29T00:05:40.256Z,76.39
2022-07-29T00:07:38.502Z,76.86
2022-07-29T00:09:50.876Z,76.22
2022-07-29T00:11:51.246Z,76.22
2022-07-29T00:13:51.137Z,77.26
2022-07-29T00:15:49.501Z,77.46
2022-07-29T00:17:47.709Z,78.29
2022-07-29T00:19:47.423Z,79.13
2022-07-29T00:21:45.780Z,79.50
2022-07-29T00:23:44.097Z,79.51
2022-07-29T00:25:42.445Z,79.86
2022-07-29T00:27:41.229Z,80.04
2022-07-29T00:29:39.348Z,78.92
2022-07-29T00:31:37.726Z,79.47
2022-07-29T00:33:36.129Z,80.29
2022-07-29T00:35:47.255Z,81.75
2022-07-29T00:37:45.720Z,82.46
2022-07-29T00:39:44.096Z,83.56
2022-07-29T00:41:42.346Z,84.25
2022-07-29T00:43:40.702Z,84.97
2022-07-29T00:45:38.979Z,84.96
2022-07-29T00:47:37.326Z,85.65
2022-07-29T00:49:36.715Z,86.12
2022-07-29T00:51:37.644Z,87.09
2022-07-29T00:53:37.801Z,86.96
2022-07-29T00:55:36.526Z,87.34
2022-07-29T00:57:35.143Z,87.01
2022-07-29T00:59:35.113Z,87.48
2022-07-29T01:01:33.733Z,87.91
2022-07-29T01:03:32.042Z,88.37
2022-07-29T01:05:50.751Z,87.61
2022-07-29T01:07:53.383Z,88.38
2022-07-29T01:09:52.579Z,88.52
2022-07-29T01:11:51.540Z,88.40
2022-07-29T01:13:50.434Z,88.37
2022-07-29T01:15:56.903Z,87.81
2022-07-29T01:18:03.931Z,87.24
2022-07-29T01:20:12.852Z,87.93
2022-07-29T01:22:30.391Z,88.67
2022-07-29T01:25:04.487Z,88.95
2022-07-29T01:27:11.865Z,88.94
2022-07-29T01:29:20.833Z,89.17
2022-07-29T01:31:27.439Z,88.90
2022-07-29T01:33:46.528Z,89.23
2022-07-29T01:35:46.422Z,88.22
2022-07-29T01:37:49.083Z,87.71
2022-07-29T01:39:49.870Z,87.74
2022-07-29T01:41:55.432Z,87.91
2022-07-29T01:43:58.866Z,87.45
2022-07-29T01:46:02.699Z,87.37
2022-07-29T01:48:05.699Z,87.51
2022-07-29T01:50:09.682Z,87.50
2022-07-29T01:52:09.970Z,87.72
2022-07-29T01:54:15.311Z,87.77
2022-07-29T01:56:17.712Z,87.67
2022-07-29T01:58:19.940Z,87.89
2022-07-29T02:00:19.786Z,87.89
2022-07-29T02:02:21.187Z,87.43
2022-07-29T02:04:29.337Z,87.19
2022-07-29T02:06:30.431Z,87.60
2022-07-29T02:08:30.453Z,88.20
2022-07-29T02:10:32.227Z,88.32
2022-07-29T02:12:33.226Z,88.64
2022-07-29T02:14:36.372Z,88.27
2022-07-29T02:16:37.474Z,89.19
2022-07-29T02:18:39.445Z,89.60
2022-07-29T02:20:41.116Z,89.75
2022-07-29T02:22:41.229Z,89.84
2022-07-29T02:24:41.460Z,89.52
2022-07-29T02:26:42.542Z,89.97
2022-07-29T02:28:42.413Z,89.68
2022-07-29T02:30:44.100Z,89.01
2022-07-29T02:32:43.827Z,87.64
2022-07-29T02:34:45.142Z,86.77
2022-07-29T02:36:46.404Z,86.68
2022-07-29T02:38:54.438Z,86.28
2022-07-29T02:40:54.652Z,86.89
2022-07-29T02:42:53.051Z,87.13
2022-07-29T02:44:52.612Z,87.03
2022-07-29T02:46:55.681Z,87.05
2022-07-29T02:49:00.441Z,87.15
2022-07-29T02:51:07.308Z,86.47
2022-07-29T02:53:13.833Z,86.23
2022-07-29T02:55:19.148Z,86.81
2022-07-29T02:57:22.528Z,87.02
2022-07-29T02:59:25.669Z,87.00
2022-07-29T03:01:26.353Z,87.58
2022-07-29T03:03:27.443Z,87.50
2022-07-29T03:05:26.499Z,87.92
2022-07-29T03:07:26.850Z,87.29
2022-07-29T03:09:26.336Z,87.36
2022-07-29T03:11:41.482Z,87.63
2022-07-29T03:13:43.934Z,88.40
2022-07-29T03:15:44.743Z,88.94
2022-07-29T03:17:43.996Z,88.73
2022-07-29T03:19:42.959Z,88.06
2022-07-29T03:21:41.545Z,87.99
2022-07-29T03:23:46.155Z,88.32
2022-07-29T03:25:45.544Z,89.04
2022-07-29T03:27:44.319Z,89.36
2022-07-29T03:29:43.718Z,89.76
2022-07-29T03:31:48.427Z,90.52
2022-07-29T03:33:46.716Z,90.60
2022-07-29T03:35:44.921Z,89.51
2022-07-29T03:37:43.246Z,88.74
2022-07-29T03:39:43.727Z,90.14
2022-07-29T03:41:46.417Z,90.08
2022-07-29T03:43:49.474Z,89.84
2022-07-29T03:45:51.810Z,88.61
2022-07-29T03:47:59.901Z,87.98
2022-07-29T03:50:02.367Z,87.68
2022-07-29T03:52:00.829Z,87.83
2022-07-29T03:53:59.555Z,88.61
2022-07-29T03:56:02.112Z,88.70
2022-07-29T03:58:03.218Z,87.94
2022-07-29T04:00:03.855Z,84.71
2022-07-29T04:02:04.768Z,79.84
2022-07-29T04:04:03.787Z,76.77
2022-07-29T04:06:03.545Z,74.84
2022-07-29T04:08:01.950Z,72.60
2022-07-29T04:10:00.254Z,71.95
2022-07-29T04:12:03.050Z,70.05
2022-07-29T04:14:02.014Z,71.48
2022-07-29T04:16:00.792Z,70.63
2022-07-29T04:17:59.230Z,70.63
2022-07-29T04:19:57.482Z,69.03
2022-07-29T04:21:55.822Z,65.33
2022-07-29T04:23:54.132Z,64.73
2022-07-29T04:25:52.446Z,63.42
2022-07-29T04:28:04.093Z,63.47
2022-07-29T04:30:02.562Z,61.48
2022-07-29T04:32:00.756Z,61.15
2022-07-29T04:33:58.986Z,58.49
2022-07-29T04:35:57.412Z,58.55
2022-07-29T04:37:55.581Z,57.23
2022-07-29T04:39:53.926Z,55.71
2022-07-29T04:41:54.910Z,54.67
2022-07-29T04:43:56.506Z,55.50
2022-07-29T04:45:56.116Z,56.79
2022-07-29T04:47:54.558Z,59.85
2022-07-29T04:49:52.877Z,60.51
2022-07-29T04:51:51.290Z,60.35
2022-07-29T04:53:49.556Z,61.38
2022-07-29T04:55:47.980Z,62.96
2022-07-29T04:57:46.248Z,63.10
2022-07-29T04:59:45.933Z,63.67
2022-07-29T05:01:44.418Z,62.89
2022-07-29T05:03:42.825Z,62.47
2022-07-29T05:05:41.883Z,62.28
2022-07-29T05:07:40.181Z,60.90
2022-07-29T05:09:38.346Z,60.65
2022-07-29T05:11:36.658Z,60.44
2022-07-29T05:13:45.366Z,58.96
2022-07-29T05:15:46.146Z,58.98
2022-07-29T05:17:44.384Z,58.13
2022-07-29T05:19:42.641Z,58.73
2022-07-29T05:21:40.853Z,58.07
2022-07-29T05:23:39.215Z,57.82
2022-07-29T05:25:43.116Z,58.18
2022-07-29T05:27:42.827Z,58.89
2022-07-29T05:29:43.243Z,60.47
2022-07-29T05:31:44.758Z,60.92
2022-07-29T05:33:43.217Z,60.53
2022-07-29T05:35:41.612Z,60.34
2022-07-29T05:37:40.152Z,59.52
2022-07-29T05:39:48.826Z,59.86
2022-07-29T05:41:52.018Z,60.36
2022-07-29T05:43:50.560Z,59.97
2022-07-29T05:45:49.664Z,59.07
2022-07-29T05:47:49.941Z,57.60
2022-07-29T05:49:48.317Z,57.40
2022-07-29T05:51:48.514Z,56.71
2022-07-29T05:53:46.947Z,55.97
2022-07-29T05:55:45.422Z,56.61
2022-07-29T05:57:44.458Z,55.41
2022-07-29T05:59:42.741Z,56.38
2022-07-29T06:01:41.070Z,57.52
2022-07-29T06:03:42.254Z,59.24
2022-07-29T06:05:40.446Z,55.94
2022-07-29T06:07:38.863Z,54.51
2022-07-29T06:09:48.433Z,52.75
2022-07-29T06:11:46.670Z,52.69
2022-07-29T06:13:44.942Z,53.09
2022-07-29T06:15:43.435Z,54.06
2022-07-29T06:18:00.095Z,55.48
2022-07-29T06:20:00.939Z,55.24
2022-07-29T06:21:59.330Z,55.28
2022-07-29T06:23:57.790Z,55.42
2022-07-29T06:25:56.013Z,56.03
2022-07-29T06:27:54.543Z,55.91
2022-07-29T06:29:52.930Z,56.27
2022-07-29T06:31:51.203Z,56.25
2022-07-29T06:33:49.441Z,55.93
2022-07-29T06:35:53.180Z,55.01
2022-07-29T06:37:52.547Z,55.86
2022-07-29T06:40:14.231Z,55.49
2022-07-29T06:42:12.458Z,54.59
2022-07-29T06:44:10.931Z,54.78
2022-07-29T06:46:12.193Z,54.51
2022-07-29T06:48:10.685Z,54.37
2022-07-29T06:50:12.764Z,54.82
2022-07-29T06:52:12.519Z,54.33
2022-07-29T06:54:10.817Z,53.19
2022-07-29T06:56:10.292Z,53.57
2022-07-29T06:58:08.801Z,53.39
2022-07-29T07:00:08.949Z,52.62
2022-07-29T07:02:07.183Z,51.81
2022-07-29T07:04:05.754Z,51.13
2022-07-29T07:06:04.488Z,51.77
2022-07-29T07:08:04.540Z,51.65
2022-07-29T07:10:03.062Z,51.14
2022-07-29T07:12:01.257Z,50.40
2022-07-29T07:14:03.446Z,49.32
2022-07-29T07:16:03.083Z,49.29
2022-07-29T07:18:01.529Z,49.81
2022-07-29T07:19:59.792Z,49.84
2022-07-29T07:21:58.080Z,49.49
2022-07-29T07:23:57.797Z,48.62
2022-07-29T07:25:56.035Z,48.83
2022-07-29T07:27:54.275Z,47.96
2022-07-29T07:29:52.526Z,47.12
2022-07-29T07:31:51.080Z,47.20
2022-07-29T07:33:49.421Z,46.28
2022-07-29T07:35:47.725Z,45.50
2022-07-29T07:37:45.958Z,45.62
2022-07-29T07:39:45.734Z,44.62
2022-07-29T07:41:43.918Z,45.65
2022-07-29T07:43:42.249Z,44.54
2022-07-29T07:45:41.190Z,44.44
2022-07-29T07:47:40.234Z,43.55
2022-07-29T07:49:38.784Z,43.10
2022-07-29T07:51:40.028Z,43.68
2022-07-29T07:53:38.320Z,44.38
2022-07-29T07:58:00.520Z,44.47
2022-07-29T07:59:58.783Z,43.79
2022-07-29T08:01:57.131Z,42.71
2022-07-29T08:03:55.591Z,42.45
2022-07-29T08:05:55.247Z,43.32
2022-07-29T08:07:53.657Z,41.98
2022-07-29T08:09:51.904Z,40.97
2022-07-29T08:11:52.356Z,40.50
2022-07-29T08:13:50.752Z,40.48
2022-07-29T08:15:49.121Z,40.67
2022-07-29T08:17:47.324Z,40.34
2022-07-29T08:19:45.497Z,38.28
2022-07-29T08:21:43.967Z,37.30
2022-07-29T08:23:50.522Z,35.80
2022-07-29T08:25:51.685Z,34.90
2022-07-29T08:27:51.415Z,33.85
2022-07-29T08:29:49.989Z,33.76
2022-07-29T08:31:48.439Z,33.16
2022-07-29T08:33:46.974Z,34.98
2022-07-29T08:35:45.123Z,32.58
2022-07-29T08:37:43.429Z,32.32
2022-07-29T08:39:42.223Z,34.44
2022-07-29T08:41:40.595Z,33.33
2022-07-29T08:43:56.353Z,32.95
2022-07-29T08:45:54.673Z,32.86
2022-07-29T08:47:53.110Z,33.44
2022-07-29T08:49:51.435Z,31.96
2022-07-29T08:51:49.942Z,31.95
2022-07-29T08:53:50.322Z,31.40
2022-07-29T08:55:51.879Z,31.09
2022-07-29T08:57:50.919Z,29.60
2022-07-29T08:59:55.987Z,27.97
2022-07-29T09:01:55.984Z,26.79
2022-07-29T09:03:58.022Z,27.84
2022-07-29T09:05:56.804Z,27.55
2022-07-29T09:07:55.644Z,26.12
2022-07-29T09:09:54.114Z,27.78
2022-07-29T09:11:55.219Z,27.03
2022-07-29T09:13:53.638Z,27.15
2022-07-29T09:15:54.113Z,27.43
2022-07-29T09:17:52.777Z,27.83
2022-07-29T09:19:53.470Z,26.46
2022-07-29T09:22:00.153Z,24.66
2022-07-29T09:24:03.272Z,24.57
2022-07-29T09:26:07.855Z,24.41
2022-07-29T09:28:10.032Z,24.25
2022-07-29T09:30:12.172Z,24.27
2022-07-29T09:32:12.642Z,24.83
2022-07-29T09:34:11.878Z,25.05
2022-07-29T09:36:12.538Z,24.50
2022-07-29T09:38:14.050Z,25.82
2022-07-29T09:40:17.304Z,25.45
2022-07-29T09:42:16.697Z,24.59
2022-07-29T09:44:15.922Z,23.96
2022-07-29T09:46:15.203Z,24.32
2022-07-29T09:48:19.088Z,25.98
2022-07-29T09:50:20.681Z,26.41
2022-07-29T09:52:19.064Z,26.86
2022-07-29T09:54:26.868Z,27.30
2022-07-29T09:56:42.376Z,25.86
2022-07-29T09:58:40.829Z,27.82
2022-07-29T10:00:44.608Z,27.43
2022-07-29T10:02:45.610Z,28.44
2022-07-29T10:04:45.369Z,27.87
2022-07-29T10:07:04.426Z,28.58
2022-07-29T10:09:10.524Z,27.80
2022-07-29T10:11:13.924Z,27.72
2022-07-29T10:13:16.058Z,27.33
2022-07-29T10:15:15.020Z,25.79
2022-07-29T10:17:13.580Z,27.20
2022-07-29T10:19:12.327Z,28.16
2022-07-29T10:21:22.547Z,26.82
2022-07-29T10:23:46.944Z,26.77
2022-07-29T10:25:47.870Z,27.81
2022-07-29T10:27:47.587Z,28.28
2022-07-29T10:29:46.228Z,29.38
2022-07-29T10:31:53.189Z,27.61
2022-07-29T10:34:04.054Z,26.57
2022-07-29T10:36:21.977Z,26.51
2022-07-29T10:38:36.860Z,25.32
2022-07-29T10:41:06.787Z,25.29
2022-07-29T10:43:24.049Z,25.98
2022-07-29T10:45:25.041Z,27.20
2022-07-29T10:47:27.485Z,27.25
2022-07-29T10:52:05.887Z,26.61
2022-07-29T10:54:06.788Z,27.36
2022-07-29T10:56:06.384Z,27.66
2022-07-29T10:58:15.855Z,27.88
2022-07-29T11:00:34.059Z,29.53
2022-07-29T11:02:53.026Z,30.25
2022-07-29T11:05:04.493Z,31.01
2022-07-29T11:07:10.406Z,31.53
2022-07-29T11:09:20.359Z,32.43
2022-07-29T11:11:35.011Z,32.87
2022-07-29T11:13:53.257Z,33.39
2022-07-29T11:15:55.706Z,33.75
2022-07-29T11:18:07.829Z,33.94
2022-07-29T11:20:37.833Z,34.03
2022-07-29T11:22:45.860Z,33.27
2022-07-29T11:24:49.307Z,33.90
2022-07-29T11:27:08.946Z,33.70
2022-07-29T11:29:19.098Z,33.67
2022-07-29T11:31:19.112Z,33.93
2022-07-29T11:33:54.526Z,33.50
2022-07-29T11:36:16.921Z,33.70
2022-07-29T11:38:31.626Z,33.93
2022-07-29T11:40:30.565Z,34.33
2022-07-29T11:42:45.075Z,34.09
2022-07-29T11:44:57.896Z,33.69
2022-07-29T11:46:56.901Z,33.60
2022-07-29T11:48:56.946Z,33.85
2022-07-29T11:50:58.292Z,33.84
2022-07-29T11:52:57.480Z,34.07
2022-07-29T11:55:00.847Z,33.50
2022-07-29T11:57:09.625Z,33.88
2022-07-29T11:59:11.127Z,33.53
2022-07-29T12:01:16.201Z,33.83
2022-07-29T12:05:48.196Z,33.13
2022-07-29T12:07:03.883Z,33.11
2022-07-29T12:07:47.240Z,33.46
2022-07-29T12:09:52.942Z,33.71
2022-07-29T12:12:04.898Z,33.84
2022-07-29T12:14:04.023Z,32.73
2022-07-29T12:16:02.577Z,32.25
2022-07-29T12:18:03.909Z,32.50
2022-07-29T12:20:05.104Z,32.80
2022-07-29T12:22:04.248Z,32.82
2022-07-29T12:24:08.802Z,32.94
2022-07-29T12:26:10.571Z,32.05
2022-07-29T12:28:14.114Z,32.50
2022-07-29T12:30:17.409Z,32.61
2022-07-29T12:32:19.824Z,32.47
2022-07-29T12:34:20.977Z,32.45
2022-07-29T12:36:19.289Z,32.59
2022-07-29T12:38:18.490Z,32.23
2022-07-29T12:40:18.548Z,32.85
2022-07-29T12:42:19.190Z,33.13
2022-07-29T12:44:18.961Z,32.77
2022-07-29T12:46:17.494Z,33.90
2022-07-29T12:48:16.825Z,32.31
2022-07-29T12:50:22.119Z,32.38
2022-07-29T12:52:29.996Z,33.10
2022-07-29T12:54:28.285Z,33.65
2022-07-29T12:56:42.307Z,33.17
2022-07-29T12:58:44.470Z,33.45
2022-07-29T13:00:45.057Z,33.71
2022-07-29T13:02:46.420Z,33.79
2022-07-29T13:04:44.863Z,34.06
2022-07-29T13:06:45.925Z,33.48
2022-07-29T13:09:01.600Z,33.32
2022-07-29T13:10:59.918Z,33.46
2022-07-29T13:13:07.597Z,32.84
2022-07-29T13:15:15.506Z,33.15
2022-07-29T13:17:17.725Z,32.60
2022-07-29T13:19:16.177Z,32.41
2022-07-29T13:21:17.723Z,32.56
2022-07-29T13:23:17.971Z,32.38
2022-07-29T13:25:17.075Z,32.84
2022-07-29T13:27:16.189Z,33.53
2022-07-29T13:29:14.564Z,33.90
2022-07-29T13:31:13.276Z,34.40
2022-07-29T13:33:13.123Z,34.68
2022-07-29T13:35:12.730Z,34.88
2022-07-29T13:37:11.118Z,34.90
2022-07-29T13:39:14.543Z,34.35
2022-07-29T13:41:15.093Z,34.43
2022-07-29T13:43:13.787Z,33.89
2022-07-29T13:45:13.166Z,33.82
2022-07-29T13:47:11.569Z,34.06
2022-07-29T13:49:12.412Z,34.59
2022-07-29T13:51:10.833Z,34.99
2022-07-29T13:53:09.139Z,35.37
2022-07-29T13:55:09.385Z,35.92
2022-07-29T13:57:07.895Z,35.30
2022-07-29T13:59:06.032Z,36.24
2022-07-29T14:01:04.644Z,35.15
2022-07-29T14:03:03.131Z,35.07
2022-07-29T14:05:07.997Z,34.33
2022-07-29T14:07:06.920Z,34.43
2022-07-29T14:09:07.208Z,33.99
2022-07-29T14:11:05.749Z,34.67
2022-07-29T14:13:04.134Z,34.42
2022-07-29T14:15:02.603Z,34.10
2022-07-29T14:17:00.993Z,34.16
2022-07-29T14:18:59.379Z,34.96
2022-07-29T14:20:59.219Z,34.56
2022-07-29T14:22:58.092Z,34.71
2022-07-29T14:24:56.384Z,34.97
2022-07-29T14:26:54.734Z,35.05
2022-07-29T14:28:53.218Z,35.01
2022-07-29T14:30:51.423Z,35.16
2022-07-29T14:32:49.640Z,35.45
2022-07-29T14:34:48.012Z,35.06
2022-07-29T14:36:47.766Z,34.73
2022-07-29T14:38:46.046Z,34.89
2022-07-29T14:40:47.679Z,35.53
2022-07-29T14:42:49.218Z,35.45
2022-07-29T14:44:48.864Z,35.59
2022-07-29T14:46:48.585Z,34.78
2022-07-29T14:48:48.005Z,34.71
2022-07-29T14:50:46.334Z,34.58
2022-07-29T14:52:46.114Z,34.27
2022-07-29T14:54:44.513Z,34.49
2022-07-29T14:56:46.956Z,33.91
2022-07-29T14:58:49.179Z,33.30
2022-07-29T15:00:50.228Z,33.64
2022-07-29T15:03:03.988Z,33.52
2022-07-29T15:05:02.197Z,34.34
2022-07-29T15:07:00.517Z,33.78
2022-07-29T15:09:00.372Z,34.21
2022-07-29T15:11:00.414Z,33.74
2022-07-29T15:12:59.199Z,33.60
2022-07-29T15:14:57.565Z,34.12
2022-07-29T15:16:55.994Z,33.84
2022-07-29T15:18:55.555Z,34.34
2022-07-29T15:20:53.967Z,34.02
2022-07-29T15:22:52.427Z,34.23
2022-07-29T15:24:52.224Z,34.06
2022-07-29T15:26:53.042Z,33.94
2022-07-29T15:28:53.270Z,34.34
2022-07-29T15:30:51.646Z,34.25
2022-07-29T15:32:49.886Z,34.01
2022-07-29T15:34:54.491Z,33.52
2022-07-29T15:36:53.724Z,33.53
2022-07-29T15:38:54.596Z,33.63
2022-07-29T15:40:54.415Z,32.84
2022-07-29T15:42:52.774Z,32.92
2022-07-29T15:44:51.230Z,32.82
2022-07-29T15:47:04.363Z,33.01
2022-07-29T15:49:03.627Z,33.42
2022-07-29T15:51:01.959Z,33.48
2022-07-29T15:53:00.589Z,32.79
2022-07-29T15:54:59.159Z,32.97
2022-07-29T15:56:59.305Z,33.22
2022-07-29T15:58:58.739Z,33.47
2022-07-29T16:00:57.181Z,33.97
2022-07-29T16:02:55.434Z,33.80
2022-07-29T16:04:53.785Z,34.11
2022-07-29T16:06:52.275Z,34.24
2022-07-29T16:08:50.717Z,34.16
2022-07-29T16:10:49.029Z,34.16
2022-07-29T16:12:48.737Z,34.24
2022-07-29T16:14:49.593Z,34.69
2022-07-29T16:16:48.352Z,34.96
2022-07-29T16:18:46.645Z,35.19
2022-07-29T16:20:45.107Z,35.25
2022-07-29T16:22:43.592Z,35.38
2022-07-29T16:24:42.216Z,35.66
2022-07-29T16:26:40.435Z,35.56
2022-07-29T16:28:40.085Z,35.96
2022-07-29T16:30:38.580Z,36.30
2022-07-29T16:32:37.105Z,36.43
2022-07-29T16:34:35.694Z,36.63
2022-07-29T16:36:34.043Z,36.31
2022-07-29T16:38:32.243Z,36.75
2022-07-29T16:40:30.572Z,36.89
2022-07-29T16:42:45.346Z,37.02
2022-07-29T16:44:45.555Z,36.93
2022-07-29T16:46:45.602Z,36.71
2022-07-29T16:48:44.001Z,37.01
2022-07-29T16:50:43.788Z,36.82
2022-07-29T16:52:42.174Z,37.00
2022-07-29T16:54:41.143Z,36.99
2022-07-29T16:56:39.471Z,37.17
2022-07-29T16:58:40.468Z,36.73
2022-07-29T17:00:43.243Z,36.81
2022-07-29T17:02:41.719Z,37.18
2022-07-29T17:04:39.992Z,37.07
2022-07-29T17:06:40.473Z,36.98
2022-07-29T17:08:38.755Z,36.57
2022-07-29T17:10:38.090Z,36.69
2022-07-29T17:12:37.816Z,36.58
2022-07-29T17:14:36.368Z,35.70
2022-07-29T17:16:36.317Z,36.34
2022-07-29T17:18:34.673Z,35.59
2022-07-29T17:20:36.573Z,36.07
2022-07-29T17:22:35.217Z,35.97
2022-07-29T17:24:33.725Z,36.19
2022-07-29T17:26:31.957Z,36.35
2022-07-29T17:28:30.357Z,36.39
2022-07-29T17:30:28.602Z,36.06
2022-07-29T17:32:28.319Z,36.10
2022-07-29T17:34:26.589Z,36.05
2022-07-29T17:36:23.877Z,36.21
2022-07-29T17:38:22.289Z,36.33
2022-07-29T17:40:20.502Z,36.39
2022-07-29T17:42:18.843Z,36.34
2022-07-29T17:44:17.122Z,36.46
2022-07-29T17:46:15.697Z,37.01
2022-07-29T17:48:15.456Z,37.17
2022-07-29T17:50:13.813Z,37.09
2022-07-29T17:52:12.263Z,37.33
2022-07-29T17:54:10.511Z,37.48
2022-07-29T17:56:09.336Z,37.74
2022-07-29T17:58:09.215Z,37.76
2022-07-29T18:00:08.945Z,37.95
2022-07-29T18:02:07.395Z,38.28
2022-07-29T18:04:07.171Z,37.99
2022-07-29T18:06:05.843Z,37.95
2022-07-29T18:08:04.197Z,38.18
2022-07-29T18:10:02.658Z,38.58
2022-07-29T18:12:01.238Z,38.24
2022-07-29T18:14:02.373Z,38.69
2022-07-29T18:16:01.103Z,38.69
2022-07-29T18:17:59.562Z,39.02
2022-07-29T18:19:59.322Z,38.46
2022-07-29T18:22:03.190Z,38.35
2022-07-29T18:24:03.540Z,38.47
2022-07-29T18:26:01.759Z,38.86
2022-07-29T18:28:00.877Z,38.61
2022-07-29T18:29:59.452Z,38.77
2022-07-29T18:32:03.301Z,39.05
2022-07-29T18:34:01.612Z,39.03
2022-07-29T18:36:10.699Z,39.04
2022-07-29T18:38:10.205Z,39.40
2022-07-29T18:40:10.722Z,39.68
2022-07-29T18:42:09.320Z,39.80
2022-07-29T18:44:09.618Z,40.23
2022-07-29T18:46:08.334Z,40.04
2022-07-29T18:48:13.004Z,40.09
2022-07-29T18:50:12.766Z,40.29
2022-07-29T18:52:12.593Z,40.15
2022-07-29T18:54:11.190Z,40.16
2022-07-29T18:56:09.618Z,40.48
2022-07-29T18:58:07.907Z,40.09
2022-07-29T19:00:10.004Z,40.32
2022-07-29T19:02:11.457Z,40.22
2022-07-29T19:04:10.199Z,40.31
2022-07-29T19:06:08.604Z,40.27
2022-07-29T19:08:09.217Z,40.84
2022-07-29T19:10:08.388Z,40.94
2022-07-29T19:12:07.497Z,40.91
2022-07-29T19:14:07.054Z,41.41
2022-07-29T19:16:05.815Z,41.16
2022-07-29T19:18:04.648Z,40.91
2022-07-29T19:20:03.609Z,40.81
2022-07-29T19:22:03.271Z,41.50
2022-07-29T19:24:07.855Z,40.94
2022-07-29T19:26:08.573Z,41.39
2022-07-29T19:28:06.940Z,40.97
2022-07-29T19:30:07.775Z,41.34
2022-07-29T19:32:06.512Z,41.47
2022-07-29T19:34:04.911Z,41.78
2022-07-29T19:36:04.017Z,41.96
2022-07-29T19:38:03.430Z,41.85
2022-07-29T19:40:03.058Z,42.35
2022-07-29T19:42:03.526Z,42.35
2022-07-29T19:44:02.007Z,42.22
2022-07-29T19:46:00.301Z,42.53
2022-07-29T19:48:01.512Z,42.54
2022-07-29T19:50:00.781Z,42.72
2022-07-29T19:51:58.931Z,42.68
2022-07-29T19:53:57.346Z,42.46
2022-07-29T19:55:57.024Z,42.48
2022-07-29T19:57:55.495Z,42.63
2022-07-29T19:59:53.862Z,42.83
2022-07-29T20:01:52.490Z,42.75
2022-07-29T20:03:50.740Z,43.13
2022-07-29T20:05:51.110Z,43.22
2022-07-29T20:07:49.523Z,43.23
2022-07-29T20:09:47.807Z,42.98
2022-07-29T20:11:47.517Z,43.06
2022-07-29T20:13:45.915Z,43.13
2022-07-29T20:15:44.191Z,43.66
2022-07-29T20:17:42.585Z,43.62
2022-07-29T20:19:42.764Z,43.83
2022-07-29T20:21:41.092Z,44.03
2022-07-29T20:23:39.494Z,44.15
2022-07-29T20:25:38.352Z,44.37
2022-07-29T20:27:40.406Z,44.47
2022-07-29T20:29:39.463Z,44.23
2022-07-29T20:31:39.044Z,44.42
2022-07-29T20:33:37.350Z,44.52
2022-07-29T20:35:35.606Z,44.78
2022-07-29T20:37:33.929Z,44.54
2022-07-29T20:39:50.956Z,44.94
2022-07-29T20:41:49.556Z,44.76
2022-07-29T20:43:49.841Z,44.98
2022-07-29T20:45:48.746Z,45.40
2022-07-29T20:47:47.150Z,45.37
2022-07-29T20:49:45.440Z,45.48
2022-07-29T20:51:44.227Z,45.78
2022-07-29T20:53:42.894Z,45.76
2022-07-29T20:55:41.494Z,45.81
2022-07-29T20:57:40.132Z,45.95
2022-07-29T20:59:44.067Z,46.16
2022-07-29T21:01:44.101Z,46.19
2022-07-29T21:03:42.479Z,46.45
2022-07-29T21:05:43.959Z,46.26
2022-07-29T21:07:42.632Z,46.63
2022-07-29T21:09:40.918Z,46.80
2022-07-29T21:11:43.559Z,46.73
2022-07-29T21:13:45.661Z,46.86
2022-07-29T21:15:48.457Z,46.86
2022-07-29T21:17:48.044Z,46.69
2022-07-29T21:19:47.208Z,47.04
2022-07-29T21:21:45.569Z,47.14
2022-07-29T21:23:44.730Z,47.15
2022-07-29T21:25:42.957Z,47.19
2022-07-29T21:27:58.362Z,47.38
2022-07-29T21:29:56.808Z,47.25
2022-07-29T21:31:59.325Z,47.77
2022-07-29T21:33:57.659Z,47.77
2022-07-29T21:36:20.326Z,47.86
2022-07-29T21:38:16.373Z,47.90
2022-07-29T21:40:14.779Z,48.37
2022-07-29T21:42:13.151Z,48.41
2022-07-29T21:44:11.541Z,48.35
2022-07-29T21:46:10.288Z,48.03
2022-07-29T21:48:10.022Z,48.29
2022-07-29T21:50:09.146Z,48.35
2022-07-29T21:52:08.226Z,48.31
2022-07-29T21:54:07.422Z,48.47
2022-07-29T21:56:07.593Z,48.48
2022-07-29T21:58:12.404Z,48.37
2022-07-29T22:00:15.725Z,48.16
2022-07-29T22:02:14.096Z,47.97
2022-07-29T22:04:14.201Z,47.89
2022-07-29T22:06:17.932Z,48.13
2022-07-29T22:08:16.730Z,48.10
2022-07-29T22:10:15.031Z,48.13
2022-07-29T22:12:13.384Z,48.01
2022-07-29T22:14:12.461Z,48.18
2022-07-29T22:16:14.788Z,48.00
2022-07-29T22:18:13.156Z,48.00
2022-07-29T22:20:20.988Z,47.85
2022-07-29T22:22:19.412Z,48.09
2022-07-29T22:24:17.645Z,47.82
2022-07-29T22:26:15.960Z,47.78
2022-07-29T22:28:14.173Z,47.68
2022-07-29T22:30:13.326Z,47.40
2022-07-29T22:32:11.783Z,47.38
2022-07-29T22:34:13.315Z,47.39
2022-07-29T22:36:13.008Z,47.18
2022-07-29T22:38:11.312Z,47.22
2022-07-29T22:40:10.151Z,47.06
2022-07-29T22:42:08.665Z,46.68
2022-07-29T22:44:07.050Z,46.70
2022-07-29T22:46:05.451Z,46.82
2022-07-29T22:48:03.760Z,46.86
2022-07-29T22:50:02.093Z,46.50
2022-07-29T22:52:01.874Z,46.63
2022-07-29T22:54:00.433Z,46.31
2022-07-29T22:55:58.777Z,46.57
2022-07-29T22:57:56.999Z,46.43
2022-07-29T22:59:56.384Z,46.48
2022-07-29T23:01:55.220Z,46.42
2022-07-29T23:03:53.867Z,46.59
2022-07-29T23:05:52.510Z,46.44
2022-07-29T23:07:52.141Z,46.00
2022-07-29T23:09:50.719Z,45.82
2022-07-29T23:11:49.101Z,46.32
2022-07-29T23:13:47.358Z,46.52
2022-07-29T23:15:45.735Z,46.45
2022-07-29T23:17:44.209Z,46.35
2022-07-29T23:19:42.684Z,46.29
2022-07-29T23:21:41.079Z,46.22
2022-07-29T23:23:40.728Z,46.57
2022-07-29T23:25:39.074Z,46.70
2022-07-29T23:27:37.501Z,46.63
2022-07-29T23:29:36.929Z,46.75
2022-07-29T23:31:36.113Z,46.90
2022-07-29T23:33:40.412Z,46.97
2022-07-29T23:35:39.273Z,47.00
2022-07-29T23:37:37.640Z,47.08
2022-07-29T23:39:37.458Z,47.16
2022-07-29T23:41:35.784Z,47.18
2022-07-29T23:43:34.037Z,47.09
2022-07-29T23:45:44.693Z,47.13
2022-07-29T23:47:43.496Z,47.00
2022-07-29T23:49:41.946Z,47.16
2022-07-29T23:51:40.121Z,47.13
2022-07-29T23:53:38.813Z,47.43
2022-07-29T23:55:53.698Z,47.44
2022-07-29T23:57:51.968Z,47.62
2022-07-29T23:59:50.207Z,47.84
